CheckWX is a tool to help pilots better visualize weather data.  It is not intended as a substitute for an official pre-flight weather briefing.

15:06:04 UTC

SCEL METAR
Comodoro Arturo Merino Benítez International Airport
Santiago, Chile
Current

6 mins ago

SCEL 211500Z 18008KT 130V200 8000 -RA FEW006 SCT010 OVC050 08/ 07 Q1017 NOSIG
Observed
Jul-21 @ 15:00 UTC
Wind
  • 180° at 8 KTS
Visibility
8,000 meters
Flight Rules
MVFR
Conditions
Light Rain
Cloud Levels
  • Few at 600' AGL
  • Scattered at 1,000' AGL
  • Overcast at 5,000' AGL
Temperature
C / 46°F
Altimeter
30.03" Hg
Pressure
1016.92 hPa
Previous

1 hour ago

SCEL 211400Z 20012KT 9999 -RA FEW006 SCT010 OVC050 07/06 Q1017NOSIG
Observed
Jul-21 @ 14:00 UTC
Wind
  • 200° at 12 KTS
Visibility
10,000+ meters
Flight Rules
VFR
Conditions
Light Rain
Cloud Levels
  • Few at 600' AGL
  • Scattered at 1,000' AGL
  • Overcast at 5,000' AGL
Temperature
C / 45°F
Dewpoint
C / 43°F
Humidity
93%
Previous

2 hours ago

SCEL 211300Z 14006KT 9999 -RA SCT010 OVC050 08/07 Q1016 NOSIG
Observed
Jul-21 @ 13:00 UTC
Wind
  • 140° at 6 KTS
Visibility
10,000+ meters
Flight Rules
VFR
Conditions
Light Rain
Cloud Levels
  • Scattered at 1,000' AGL
  • Overcast at 5,000' AGL
Temperature
C / 46°F
Dewpoint
C / 45°F
Humidity
93%
Altimeter
30" Hg
Pressure
1015.92 hPa